Aérodrome :
LOGIN :

S'inscrire | Disclaimer

   EN    FR    IT 

 










Légende :    VFR   VFR Marginal   IFR   IFR Intensif   IFR Très Intensif
Visi : 
Plafond : 
>= 8 km
>= 3000ft
5 à 8 km
1000 à 3000 ft
1500m à 5 km
500 à 1000 ft
800 à 1500m
200 à 500 ft
< 800m
< 200 ft
Symboles :   Orages  Brouillard  Fortes neiges  Fortes précipitations  Vent > 20 kt
SIGMETs :   Divers  Orages  Givrage  Turbulence  Onde Orograph.  Cendres Volcan.







- Altitude de l'aérodrome : 1649 ft
- Code IATA : HHN


EDFH - Frankfurt-Hahn Rhineland-Palatinate

DERNIER METAR :
  • 121250Z 02003KT 8000 SCT008 BKN032 01/00 Q1022

METARs EXPIRÉS :
  • 121220Z 05003KT 360V100 7000 SCT011 BKN017 01/00 Q1022
  • 121150Z 02004KT 360V060 5000 BR SCT003 BKN037 01/00 Q1022
  • 121120Z 36004KT 2000 BR SCT002 BKN004 00/00 Q1022
  • 121050Z 36004KT 3000 BR BKN002 00/M00 Q1023
  • 121020Z 32003KT 290V350 9999 1200N R03/P2000N BR SCT003 BKN009 00/M00 Q1023

TAF TAF EDFH
Valide du 12 à 12h jusqu'au 13 à 12h UTC


121100Z 1212/1312 VRB03KT 9999 BKN012
TEMPO 1212/1215 2000 BR BKN004
TEMPO 1215/1220 SCT012
BECMG 1215/1218 08008KT
BECMG 1303/1306 10013KT
Pas de NOTAMs connus pour ce terrain.



MET'MAP, la Météo Aéronautique d'un coup d'oeil ! - Copyright ORBIFLY Décembre 2007 - Disclaimer

ORBIFLY MET'MAP TEAM :

Programmation & Développement : Alexandra Zaïnal
Conception & Développement : Baudouin d'Aumeries
Co-Programmation & Développement : Marc-Olivier Méhu
Soutien technique & logistique : Manuel Goepfert

Contact : metmap@orbifly.com




SOURCES & CREDITS :

   NOAA